Time;durP1;ratioP1;P1;durP2;ratioP2;P2;SDS_P1;SDS_P2;PMS_P1;PMS_P2;Temp;Humidity;BMP_temperature;BMP_pressure;BME280_temperature;BME280_humidity;BME280_pressure;Samples;Min_cycle;Max_cycle;Signal;HPM_P1;HPM_P2
2021/10/25 00:01:51;;;;;;;0.40;0.30;;;;;;;6.15;88.83;101758.22;5036067;28;20948;-72
2021/10/25 00:04:17;;;;;;;0.40;0.27;;;;;;;6.14;89.65;101756.59;5035903;28;20454;-71
2021/10/25 00:06:45;;;;;;;0.40;0.27;;;;;;;6.13;89.30;101760.34;5035808;28;20459;-72
2021/10/25 00:09:12;;;;;;;0.80;0.80;;;;;;;6.14;89.56;101761.16;5035815;28;20443;-71
2021/10/25 00:11:38;;;;;;;0.40;0.30;;;;;;;6.14;88.95;101761.97;5035705;28;20450;-70
2021/10/25 00:14:05;;;;;;;1.30;1.27;;;;;;;6.12;89.03;101764.09;5035777;28;20454;-70
2021/10/25 00:16:31;;;;;;;0.40;0.20;;;;;;;6.11;88.67;101757.09;5035511;28;20509;-70
2021/10/25 00:18:57;;;;;;;0.40;0.30;;;;;;;6.06;89.04;101749.75;5035551;28;20443;-70
2021/10/25 00:21:24;;;;;;;0.40;0.30;;;;;;;6.01;89.09;101755.03;5035272;28;20936;-70
2021/10/25 00:23:52;;;;;;;0.40;0.30;;;;;;;5.98;89.34;101746.66;5035522;28;20824;-71
2021/10/25 00:26:18;;;;;;;1.23;1.13;;;;;;;5.89;89.14;101743.50;5035362;28;20999;-70
2021/10/25 00:28:45;;;;;;;0.40;0.30;;;;;;;5.88;87.91;101754.47;5035144;28;20937;-70
2021/10/25 00:31:11;;;;;;;0.60;0.50;;;;;;;5.79;87.41;101736.03;5035424;28;20454;-71
2021/10/25 00:33:37;;;;;;;0.40;0.20;;;;;;;5.79;87.85;101743.28;5035293;28;20455;-71
2021/10/25 00:36:04;;;;;;;0.40;0.30;;;;;;;5.72;87.76;101737.25;5035264;28;20470;-70
2021/10/25 00:38:31;;;;;;;0.40;0.30;;;;;;;5.65;87.78;101742.75;5035256;28;20494;-71
2021/10/25 00:40:59;;;;;;;0.40;0.20;;;;;;;5.66;87.34;101735.50;5035467;28;20447;-70
2021/10/25 00:43:26;;;;;;;2.10;2.00;;;;;;;5.62;87.38;101737.03;5035168;28;20815;-71
2021/10/25 00:45:53;;;;;;;0.40;0.30;;;;;;;5.65;87.29;101733.88;5034999;28;20467;-70
2021/10/25 00:48:19;;;;;;;10.23;8.73;;;;;;;5.64;87.61;101733.06;5035041;28;20439;-71
2021/10/25 00:50:46;;;;;;;4.10;3.50;;;;;;;5.59;89.36;101732.16;5034661;28;20816;-70
2021/10/25 00:53:12;;;;;;;0.40;0.30;;;;;;;5.62;89.54;101723.59;5035045;28;20447;-70
2021/10/25 00:55:40;;;;;;;0.40;0.27;;;;;;;5.71;89.96;101731.06;5034883;28;20478;-70
2021/10/25 00:58:09;;;;;;;0.40;0.30;;;;;;;5.72;90.15;101732.69;5034137;28;20533;-71
2021/10/25 01:00:36;;;;;;;0.40;0.30;;;;;;;5.73;90.50;101720.88;5034567;28;20926;-71
2021/10/25 01:03:03;;;;;;;0.40;0.20;;;;;;;5.77;90.67;101726.59;5034477;28;20458;-71
2021/10/25 01:05:31;;;;;;;0.40;0.30;;;;;;;5.76;89.92;101723.09;5034710;28;20470;-70
2021/10/25 01:07:58;;;;;;;0.40;0.30;;;;;;;5.78;89.71;101720.97;5034754;28;20432;-70
2021/10/25 01:10:24;;;;;;;0.40;0.20;;;;;;;5.73;90.32;101718.19;5034648;28;20456;-72
2021/10/25 01:12:52;;;;;;;0.40;0.30;;;;;;;5.74;90.19;101713.63;5034770;28;20812;-70
2021/10/25 01:15:20;;;;;;;0.40;0.30;;;;;;;5.74;90.07;101713.63;5034191;28;20941;-71
2021/10/25 01:17:52;;;;;;;0.40;0.30;;;;;;;5.73;89.99;101714.69;5034426;28;20486;-71
2021/10/25 01:20:21;;;;;;;0.40;0.30;;;;;;;5.66;90.65;101711.31;5034214;28;20477;-71
2021/10/25 01:22:47;;;;;;;0.40;0.30;;;;;;;5.66;90.55;101714.00;5034119;28;20454;-70
2021/10/25 01:25:13;;;;;;;0.50;0.43;;;;;;;5.59;88.85;101716.84;5034324;28;20442;-70
2021/10/25 01:27:40;;;;;;;0.40;0.30;;;;;;;5.61;89.23;101712.03;5034076;28;20470;-70
2021/10/25 01:30:07;;;;;;;0.40;0.30;;;;;;;5.54;88.32;101706.81;5034192;28;20447;-71
2021/10/25 01:32:34;;;;;;;0.40;0.30;;;;;;;5.49;88.97;101716.63;5034281;28;20435;-72
2021/10/25 01:35:00;;;;;;;0.40;0.30;;;;;;;5.45;88.63;101707.44;5034193;28;20447;-71
2021/10/25 01:37:28;;;;;;;0.40;0.30;;;;;;;5.44;88.53;101706.59;5033652;28;20487;-71
2021/10/25 01:39:54;;;;;;;0.40;0.30;;;;;;;5.37;88.72;101707.81;5033994;28;20523;-72
2021/10/25 01:42:21;;;;;;;0.40;0.30;;;;;;;5.31;88.43;101704.19;5034223;28;20447;-71
2021/10/25 01:44:47;;;;;;;0.40;0.30;;;;;;;5.24;88.60;101704.34;5034126;28;20447;-71
2021/10/25 01:47:14;;;;;;;0.40;0.30;;;;;;;5.25;88.91;101695.22;5033896;28;20459;-71
2021/10/25 01:49:40;;;;;;;0.40;0.20;;;;;;;5.20;88.87;101695.13;5033838;28;20509;-71
2021/10/25 01:52:07;;;;;;;0.40;0.30;;;;;;;5.19;90.04;101690.00;5033908;28;20447;-70
2021/10/25 01:54:36;;;;;;;0.40;0.30;;;;;;;5.16;90.65;101685.91;5033538;28;20986;-72
2021/10/25 01:57:02;;;;;;;0.40;0.30;;;;;;;5.21;90.93;101695.94;5033403;28;20506;-71
2021/10/25 01:59:29;;;;;;;0.40;0.20;;;;;;;5.21;91.01;101695.94;5033794;28;20932;-70
2021/10/25 02:01:55;;;;;;;0.40;0.30;;;;;;;5.19;90.45;101688.13;5033702;28;20446;-70
2021/10/25 02:04:22;;;;;;;1.50;1.40;;;;;;;5.10;90.25;101686.88;5033865;28;20443;-69
2021/10/25 02:06:48;;;;;;;0.40;0.30;;;;;;;5.04;90.76;101679.75;5033572;28;20467;-69
2021/10/25 02:09:14;;;;;;;0.40;0.30;;;;;;;4.94;90.69;101672.31;5033510;28;20450;-69
2021/10/25 02:11:42;;;;;;;0.40;0.27;;;;;;;4.86;91.11;101675.34;5033456;28;20443;-73
2021/10/25 02:14:09;;;;;;;0.40;0.30;;;;;;;4.79;91.02;101672.00;5033090;28;20447;-72
2021/10/25 02:16:35;;;;;;;0.50;0.40;;;;;;;4.73;90.62;101665.66;5033305;28;20467;-72
2021/10/25 02:19:02;;;;;;;0.40;0.30;;;;;;;4.60;91.82;101665.91;5033454;28;20514;-71
2021/10/25 02:21:28;;;;;;;0.40;0.30;;;;;;;4.63;92.10;101653.91;5033444;28;20444;-71
2021/10/25 02:23:55;;;;;;;0.40;0.30;;;;;;;4.54;91.78;101648.91;5033595;28;20494;-70
2021/10/25 02:26:21;;;;;;;0.40;0.30;;;;;;;4.45;91.57;101644.94;5033006;28;21003;-71
2021/10/25 02:28:49;;;;;;;0.40;0.30;;;;;;;4.51;91.34;101648.53;5033322;28;20438;-71
2021/10/25 02:31:16;;;;;;;0.40;0.30;;;;;;;4.43;92.65;101649.72;5033348;28;20446;-71
2021/10/25 02:33:43;;;;;;;0.40;0.30;;;;;;;4.50;92.96;101644.22;5033243;28;20446;-71
2021/10/25 02:36:10;;;;;;;0.40;0.30;;;;;;;4.54;93.23;101642.72;5032866;28;20995;-71
2021/10/25 02:38:38;;;;;;;0.40;0.30;;;;;;;4.53;92.35;101636.53;5033181;28;20864;-72
2021/10/25 02:41:04;;;;;;;53.73;43.00;;;;;;;4.52;92.15;101637.59;5032916;28;20818;-72
2021/10/25 02:43:31;;;;;;;0.40;0.30;;;;;;;4.56;91.62;101627.22;5033127;28;20482;-71
2021/10/25 02:45:59;;;;;;;0.40;0.30;;;;;;;4.61;91.94;101623.81;5033233;28;20470;-71
2021/10/25 02:48:26;;;;;;;0.40;0.30;;;;;;;4.71;92.25;101624.84;5033067;28;20927;-71
2021/10/25 02:50:53;;;;;;;0.40;0.30;;;;;;;4.68;91.79;101630.69;5033127;28;20485;-72
2021/10/25 02:53:20;;;;;;;0.40;0.30;;;;;;;4.72;91.80;101621.09;5033094;28;20475;-72
2021/10/25 02:55:47;;;;;;;0.40;0.30;;;;;;;4.73;91.04;101624.59;5034131;28;20569;-72
2021/10/25 02:58:13;;;;;;;0.40;0.30;;;;;;;4.71;91.36;101632.91;5033056;28;20443;-72
2021/10/25 03:00:40;;;;;;;1.57;1.47;;;;;;;4.73;91.01;101629.97;5032779;28;20435;-72
2021/10/25 03:03:08;;;;;;;2.03;1.90;;;;;;;4.77;91.01;101629.25;5033239;28;20443;-70
2021/10/25 03:05:35;;;;;;;0.40;0.20;;;;;;;4.81;90.91;101641.16;5032686;28;21000;-72
2021/10/25 03:08:02;;;;;;;1.47;1.37;;;;;;;4.81;90.46;101641.16;5032861;28;20479;-71
2021/10/25 03:10:29;;;;;;;0.40;0.30;;;;;;;4.84;90.58;101639.06;5032867;28;20450;-72
2021/10/25 03:12:56;;;;;;;0.40;0.30;;;;;;;4.94;91.65;101636.59;5032915;28;20478;-71
2021/10/25 03:15:23;;;;;;;0.40;0.30;;;;;;;4.98;92.24;101640.44;5032532;28;20967;-72
2021/10/25 03:17:50;;;;;;;0.40;0.30;;;;;;;5.03;92.32;101637.84;5032565;28;20546;-70
2021/10/25 03:20:18;;;;;;;0.40;0.30;;;;;;;5.09;92.07;101639.59;5033105;28;20451;-72
2021/10/25 03:22:44;;;;;;;0.40;0.30;;;;;;;5.18;91.70;101645.38;5032841;28;20449;-72
2021/10/25 03:25:12;;;;;;;0.40;0.23;;;;;;;5.23;91.37;101632.88;5032721;28;20505;-72
2021/10/25 03:27:39;;;;;;;0.40;0.30;;;;;;;5.31;91.29;101629.81;5036254;28;20493;-73
2021/10/25 03:30:07;;;;;;;0.40;0.27;;;;;;;5.40;90.96;101632.94;5036957;28;20447;-72
2021/10/25 03:32:34;;;;;;;0.40;0.30;;;;;;;5.42;90.72;101630.00;5036210;28;20925;-72
2021/10/25 03:35:00;;;;;;;3.13;2.77;;;;;;;5.44;90.30;101622.50;5036403;28;20836;-71
2021/10/25 03:37:28;;;;;;;0.40;0.30;;;;;;;5.43;90.08;101623.56;5036338;28;20489;-72
2021/10/25 03:39:55;;;;;;;0.40;0.30;;;;;;;5.47;89.95;101619.34;5036311;28;20454;-71
2021/10/25 03:42:26;;;;;;;0.40;0.30;;;;;;;5.51;89.75;101620.50;5036347;28;20454;-72
2021/10/25 03:44:59;;;;;;;0.40;0.30;;;;;;;5.48;89.94;101623.66;5036564;28;20427;-73
2021/10/25 03:47:29;;;;;;;0.40;0.30;;;;;;;5.51;89.22;101626.69;5036198;28;20836;-73
2021/10/25 03:50:01;;;;;;;0.40;0.30;;;;;;;5.40;88.24;101621.34;5035957;28;21059;-73
2021/10/25 03:52:34;;;;;;;0.40;0.30;;;;;;;5.43;87.16;101620.88;5036224;28;20431;-73
2021/10/25 03:55:07;;;;;;;0.40;0.30;;;;;;;5.34;87.69;101616.97;5036130;28;20449;-72
2021/10/25 03:57:53;;;;;;;0.50;0.47;;;;;;;5.27;87.38;101612.56;5035861;28;20823;-72
2021/10/25 04:27:58;;;;;;;0.40;0.30;;;;;;;5.27;89.44;101604.50;5009443;28;20606;-71
2021/10/25 04:30:28;;;;;;;0.40;0.30;;;;;;;5.26;89.21;101604.72;5035367;28;20880;-70
2021/10/25 04:32:55;;;;;;;0.50;0.43;;;;;;;5.19;89.59;101601.38;5035199;28;20948;-70
2021/10/25 04:35:21;;;;;;;0.40;0.20;;;;;;;5.18;89.83;101594.34;5035239;28;20443;-71
2021/10/25 04:37:47;;;;;;;0.40;0.30;;;;;;;5.13;89.93;101594.25;5034594;28;20448;-71
2021/10/25 04:40:15;;;;;;;0.40;0.40;;;;;;;5.16;90.14;101591.91;5035196;28;20470;-71
2021/10/25 04:42:42;;;;;;;0.40;0.30;;;;;;;5.16;90.45;101591.09;5034886;28;20963;-71
2021/10/25 04:45:09;;;;;;;0.73;0.73;;;;;;;5.12;90.67;101592.63;5035116;28;20466;-71
2021/10/25 04:47:35;;;;;;;0.40;0.30;;;;;;;5.11;90.83;101581.09;5035034;28;20439;-71
2021/10/25 04:50:02;;;;;;;0.50;0.50;;;;;;;5.13;89.28;101576.28;5035051;28;20439;-71
2021/10/25 04:52:28;;;;;;;0.40;0.30;;;;;;;5.07;88.20;101578.06;5034946;28;20450;-70
2021/10/25 04:54:54;;;;;;;0.40;0.30;;;;;;;5.10;87.70;101578.66;5034932;28;20840;-71
2021/10/25 04:57:22;;;;;;;0.40;0.30;;;;;;;4.94;87.28;101580.22;5034437;28;20483;-71
2021/10/25 04:59:49;;;;;;;0.40;0.30;;;;;;;4.91;87.66;101576.13;5034800;28;20443;-70
2021/10/25 05:02:15;;;;;;;0.40;0.30;;;;;;;4.89;87.97;101580.94;5035006;28;20442;-72
2021/10/25 05:04:42;;;;;;;0.40;0.30;;;;;;;4.83;87.89;101568.47;5034757;28;20925;-71
2021/10/25 05:07:09;;;;;;;0.40;0.30;;;;;;;4.88;88.91;101576.63;5034905;28;20458;-71
2021/10/25 05:09:35;;;;;;;0.40;0.30;;;;;;;4.85;88.89;101577.09;5034271;28;20849;-69
2021/10/25 05:12:02;;;;;;;0.40;0.30;;;;;;;4.81;88.48;101571.38;5034270;28;20971;-71
2021/10/25 05:14:30;;;;;;;0.40;0.30;;;;;;;4.84;88.83;101569.28;5034664;28;20465;-70
2021/10/25 05:16:56;;;;;;;0.40;0.30;;;;;;;4.84;89.22;101569.28;5034481;28;20490;-72
2021/10/25 05:19:23;;;;;;;0.40;0.27;;;;;;;4.81;89.77;101566.00;5034515;28;20435;-71
2021/10/25 05:21:49;;;;;;;0.50;0.47;;;;;;;4.88;89.99;101567.75;5034464;28;20447;-71
2021/10/25 05:24:16;;;;;;;0.40;0.30;;;;;;;4.94;90.61;101564.09;5034689;28;20497;-71
2021/10/25 05:26:43;;;;;;;0.40;0.20;;;;;;;4.97;90.98;101563.63;5034260;28;20498;-72
2021/10/25 05:29:09;;;;;;;0.40;0.30;;;;;;;4.99;91.03;101566.88;5033928;28;21027;-72
2021/10/25 05:31:37;;;;;;;0.40;0.30;;;;;;;4.99;91.40;101572.25;5034241;28;20446;-71
2021/10/25 05:34:03;;;;;;;0.47;0.37;;;;;;;5.02;90.68;101569.91;5034218;28;20900;-72
2021/10/25 05:36:30;;;;;;;0.40;0.30;;;;;;;5.05;90.19;101560.56;5034139;28;20463;-73
2021/10/25 05:38:56;;;;;;;0.40;0.30;;;;;;;5.06;89.76;101556.81;5034170;28;20439;-71
2021/10/25 05:41:24;;;;;;;0.40;0.30;;;;;;;5.10;89.53;101563.34;5033979;28;20443;-73
2021/10/25 05:43:51;;;;;;;0.40;0.30;;;;;;;5.11;89.18;101562.28;5033992;28;20458;-72
2021/10/25 05:46:17;;;;;;;0.40;0.30;;;;;;;5.12;89.21;101560.41;5034062;28;20463;-72
2021/10/25 05:48:45;;;;;;;0.40;0.30;;;;;;;5.08;90.12;101554.69;5033999;28;20483;-72
2021/10/25 05:51:12;;;;;;;0.40;0.30;;;;;;;5.08;89.67;101557.38;5033367;28;20474;-72
2021/10/25 05:53:38;;;;;;;0.40;0.30;;;;;;;4.97;89.08;101551.03;5033902;28;20443;-72
2021/10/25 05:56:05;;;;;;;0.40;0.30;;;;;;;4.95;88.41;101549.63;5033718;28;20463;-72
2021/10/25 05:58:31;;;;;;;0.40;0.30;;;;;;;4.94;88.16;101543.44;5033886;28;20803;-72
2021/10/25 06:01:00;;;;;;;0.40;0.30;;;;;;;4.81;88.14;101554.47;5033772;28;20451;-72
2021/10/25 06:03:30;;;;;;;0.40;0.30;;;;;;;4.83;89.24;101551.56;5033817;28;20451;-72
2021/10/25 06:05:58;;;;;;;2.40;2.27;;;;;;;4.89;89.70;101550.59;5033672;28;20477;-73
2021/10/25 06:08:24;;;;;;;0.40;0.30;;;;;;;4.92;88.57;101559.00;5033604;28;20490;-72
2021/10/25 06:10:51;;;;;;;0.40;0.20;;;;;;;4.94;88.60;101553.38;5033461;28;20446;-74
2021/10/25 06:13:23;;;;;;;19.17;15.87;;;;;;;4.99;89.21;101556.97;5033529;28;20461;-74
2021/10/25 06:15:56;;;;;;;0.40;0.30;;;;;;;5.05;89.82;101553.34;5033399;28;20463;-74
2021/10/25 06:18:23;;;;;;;0.40;0.30;;;;;;;5.01;88.72;101554.88;5033350;28;21035;-74
2021/10/25 06:20:50;;;;;;;3.13;2.93;;;;;;;5.00;88.57;101553.25;5033254;28;20465;-74
2021/10/25 06:23:18;;;;;;;0.60;0.60;;;;;;;5.00;88.98;101560.44;5033565;28;20454;-73
2021/10/25 06:25:50;;;;;;;0.50;0.40;;;;;;;5.04;88.78;101562.41;5033164;28;20451;-72
2021/10/25 06:28:16;;;;;;;0.40;0.20;;;;;;;5.06;89.62;101564.88;5033004;28;20913;-72
2021/10/25 06:30:43;;;;;;;0.40;0.30;;;;;;;5.15;90.31;101571.50;5033356;28;20443;-72
2021/10/25 06:33:14;;;;;;;0.40;0.30;;;;;;;5.15;91.15;101568.81;5033148;28;20964;-73
2021/10/25 06:35:42;;;;;;;0.60;0.60;;;;;;;5.16;91.22;101565.06;5033086;28;20482;-73
2021/10/25 06:38:10;;;;;;;0.40;0.30;;;;;;;5.25;90.15;101568.19;5032990;28;20483;-71
2021/10/25 06:40:39;;;;;;;0.40;0.20;;;;;;;5.29;90.08;101575.50;5032940;28;20933;-73
2021/10/25 06:43:05;;;;;;;0.40;0.30;;;;;;;5.32;89.43;101579.59;5033228;28;20445;-73
2021/10/25 06:45:32;;;;;;;1.63;1.50;;;;;;;5.37;89.61;101573.50;5033082;28;20470;-73
2021/10/25 06:47:58;;;;;;;0.40;0.30;;;;;;;5.39;89.72;101571.38;5032817;28;20435;-72
2021/10/25 06:50:28;;;;;;;0.40;0.30;;;;;;;5.39;90.32;101568.69;5033110;28;20489;-73
2021/10/25 06:53:03;;;;;;;0.40;0.30;;;;;;;5.46;88.76;101564.78;5032752;28;20903;-72
2021/10/25 06:55:29;;;;;;;0.40;0.30;;;;;;;5.51;89.21;101569.44;5032711;28;20975;-73
2021/10/25 06:57:58;;;;;;;3.43;3.23;;;;;;;5.55;88.35;101570.59;5032717;28;20457;-73
2021/10/25 07:00:24;;;;;;;0.50;0.37;;;;;;;5.54;88.01;101574.34;5033280;28;20447;-73
2021/10/25 07:02:51;;;;;;;0.40;0.30;;;;;;;5.57;87.57;101568.47;5037051;28;20451;-73
2021/10/25 07:05:18;;;;;;;0.40;0.30;;;;;;;5.61;87.31;101574.97;5036848;28;20500;-72
2021/10/25 07:07:45;;;;;;;0.40;0.30;;;;;;;5.61;87.54;101574.97;5037334;28;20446;-72
2021/10/25 07:10:11;;;;;;;0.40;0.30;;;;;;;5.57;86.97;101579.22;5036936;28;20482;-74
2021/10/25 07:12:39;;;;;;;0.40;0.30;;;;;;;5.59;87.38;101577.09;5036864;28;20446;-73
2021/10/25 07:15:09;;;;;;;0.40;0.30;;;;;;;5.65;87.29;101572.63;5036909;28;20443;-73
2021/10/25 07:17:39;;;;;;;0.40;0.30;;;;;;;5.67;86.70;101576.72;5036534;28;20443;-73
2021/10/25 07:20:25;;;;;;;0.50;0.30;;;;;;;5.75;87.25;101576.28;5037062;28;20449;-73
2021/10/25 08:07:11;;;;;;;0.40;0.30;;;;;;;7.07;83.43;101554.94;5030348;28;20471;-72
2021/10/25 08:09:49;;;;;;;0.40;0.30;;;;;;;7.10;82.83;101559.81;5035855;28;20476;-73
2021/10/25 08:12:17;;;;;;;0.40;0.30;;;;;;;7.11;82.95;101558.75;5034899;28;20431;-72
2021/10/25 08:14:49;;;;;;;0.40;0.30;;;;;;;7.19;82.12;101560.19;5035732;28;20820;-73
2021/10/25 08:17:19;;;;;;;0.40;0.30;;;;;;;7.19;82.44;101560.19;5035666;28;20558;-72
2021/10/25 08:19:48;;;;;;;0.40;0.30;;;;;;;7.23;82.78;101553.22;5035756;28;20522;-72
2021/10/25 08:22:16;;;;;;;0.40;0.30;;;;;;;7.27;81.78;101557.84;5035656;28;20439;-72
2021/10/25 08:24:45;;;;;;;0.40;0.30;;;;;;;7.32;82.44;101562.47;5035616;28;20447;-71
2021/10/25 08:27:13;;;;;;;0.40;0.20;;;;;;;7.33;82.37;101551.44;5035706;28;20467;-71
2021/10/25 08:29:40;;;;;;;0.50;0.43;;;;;;;7.41;81.25;101554.75;5035438;28;20505;-72
2021/10/25 08:32:16;;;;;;;0.40;0.30;;;;;;;7.50;81.15;101542.41;5035407;28;20435;-72
2021/10/25 08:34:53;;;;;;;0.40;0.27;;;;;;;7.57;81.09;101546.53;5034995;28;20882;-73
2021/10/25 08:40:06;;;;;;;0.40;0.30;;;;;;;7.76;81.27;101557.75;5035186;28;20431;-73
2021/10/25 08:42:36;;;;;;;0.40;0.30;;;;;;;7.83;82.69;101554.81;5035275;28;20447;-71
2021/10/25 08:45:08;;;;;;;0.40;0.30;;;;;;;8.00;82.07;101554.66;5035133;28;20474;-72
2021/10/25 08:47:39;;;;;;;0.40;0.30;;;;;;;8.10;80.00;101549.31;5034922;28;20902;-72
2021/10/25 08:50:09;;;;;;;0.40;0.30;;;;;;;8.11;78.79;101553.66;5035083;28;20467;-72
2021/10/25 08:52:37;;;;;;;0.40;0.30;;;;;;;8.22;79.42;101555.34;5034776;28;20494;-72
2021/10/25 08:55:06;;;;;;;0.70;0.70;;;;;;;8.33;79.09;101559.72;5034918;28;20447;-73
2021/10/25 08:57:34;;;;;;;0.40;0.30;;;;;;;8.46;78.86;101560.38;5079488;22;20486;-81
2021/10/25 09:00:05;;;;;;;0.40;0.30;;;;;;;8.57;79.38;101556.63;5079195;28;20452;-81
2021/10/25 09:02:35;;;;;;;0.40;0.30;;;;;;;8.69;77.84;101559.94;5080639;28;20477;-82
2021/10/25 09:05:07;;;;;;;0.40;0.30;;;;;;;8.78;78.67;101558.34;5099817;22;20579;-81
2021/10/25 09:07:49;;;;;;;0.40;0.30;;;;;;;8.88;77.53;101567.56;5099951;28;20428;-81
2021/10/25 09:10:22;;;;;;;0.40;0.30;;;;;;;8.90;77.18;101551.88;5100867;28;20460;-81
2021/10/25 09:12:53;;;;;;;0.40;0.30;;;;;;;8.93;76.33;101554.88;5100319;28;20520;-81
2021/10/25 09:15:19;;;;;;;0.50;0.27;;;;;;;8.98;76.51;101551.38;5104218;28;20480;-80
2021/10/25 09:17:46;;;;;;;0.40;0.40;;;;;;;9.00;75.83;101543.81;5098788;28;20445;-81
2021/10/25 09:20:16;;;;;;;0.40;0.30;;;;;;;9.02;76.29;101555.16;5098110;28;20982;-82
2021/10/25 09:22:43;;;;;;;0.40;0.30;;;;;;;9.05;77.10;101562.75;5099147;28;20435;-80
2021/10/25 09:25:11;;;;;;;0.40;0.30;;;;;;;9.15;77.13;101543.84;5098965;28;20460;-81
2021/10/25 09:27:42;;;;;;;0.40;0.30;;;;;;;9.23;76.75;101548.72;5098141;28;20440;-81
2021/10/25 09:30:12;;;;;;;0.40;0.30;;;;;;;9.32;76.13;101557.13;5098688;28;20472;-81
2021/10/25 09:32:41;;;;;;;0.70;0.70;;;;;;;9.40;75.95;101545.78;5097976;28;20977;-81
2021/10/25 09:35:16;;;;;;;0.40;0.30;;;;;;;9.47;76.03;101538.19;5098063;28;20457;-81
2021/10/25 09:37:47;;;;;;;0.40;0.30;;;;;;;9.54;75.68;101532.53;5098578;28;20820;-81
2021/10/25 09:40:23;;;;;;;3.90;2.20;;;;;;;9.51;75.58;101528.47;5099512;28;20478;-81
2021/10/25 09:51:11;;;;;;;0.40;0.20;;;;;;;9.95;74.52;101536.00;5098074;28;20585;-81
2021/10/25 09:53:43;;;;;;;0.40;0.30;;;;;;;10.01;74.07;101536.84;5098480;28;20447;-81
2021/10/25 09:56:13;;;;;;;0.40;0.20;;;;;;;10.04;74.48;101530.84;5098763;28;20472;-81
2021/10/25 09:58:53;;;;;;;0.40;0.30;;;;;;;10.10;72.70;101530.56;5099066;28;20500;-81
2021/10/25 10:01:25;;;;;;;0.40;0.30;;;;;;;10.15;73.59;101532.47;5098005;28;20489;-81
2021/10/25 10:03:52;;;;;;;2.03;1.83;;;;;;;10.25;73.25;101537.88;5098468;28;20464;-81
2021/10/25 10:06:20;;;;;;;0.40;0.20;;;;;;;10.31;72.36;101536.78;5099260;28;20457;-82
2021/10/25 10:08:48;;;;;;;0.93;0.93;;;;;;;10.40;71.34;101536.19;5098625;28;20435;-82
2021/10/25 10:11:16;;;;;;;0.40;0.30;;;;;;;10.48;71.94;101527.50;5099874;28;20476;-82
2021/10/25 10:13:43;;;;;;;0.40;0.30;;;;;;;10.53;71.74;101533.69;5104362;28;20946;-81
2021/10/25 10:16:11;;;;;;;0.40;0.30;;;;;;;10.53;73.86;101527.47;5098281;28;20468;-81
2021/10/25 10:18:41;;;;;;;0.40;0.30;;;;;;;10.67;73.05;101520.41;5098234;28;20447;-81
2021/10/25 10:21:09;;;;;;;0.40;0.30;;;;;;;10.84;72.30;101515.41;5097973;28;20440;-81
2021/10/25 10:23:37;;;;;;;0.97;0.97;;;;;;;10.96;72.33;101516.97;5098351;28;20437;-81
2021/10/25 10:26:11;;;;;;;0.40;0.30;;;;;;;11.09;71.77;101519.06;5097450;28;20460;-81
2021/10/25 10:28:42;;;;;;;0.40;0.30;;;;;;;11.23;69.32;101517.31;5097716;28;20917;-81
2021/10/25 10:31:12;;;;;;;0.40;0.30;;;;;;;11.34;69.56;101518.06;5097792;28;20837;-81
2021/10/25 10:33:41;;;;;;;0.40;0.30;;;;;;;11.42;68.45;101524.78;5098161;28;20441;-81
2021/10/25 10:36:13;;;;;;;0.40;0.30;;;;;;;11.54;68.69;101517.09;5097774;28;20808;-81
2021/10/25 10:38:44;;;;;;;0.40;0.30;;;;;;;11.63;68.68;101523.53;5098198;28;20817;-80
2021/10/25 10:41:13;;;;;;;0.40;0.30;;;;;;;11.74;68.23;101525.06;5098332;28;20436;-81
2021/10/25 10:43:41;;;;;;;0.40;0.30;;;;;;;11.93;68.64;101527.09;5099170;28;20809;-82
2021/10/25 10:46:12;;;;;;;0.40;0.30;;;;;;;12.11;67.15;101521.72;5097575;28;20435;-81
2021/10/25 10:48:40;;;;;;;0.40;0.30;;;;;;;12.23;66.28;101526.78;5097849;28;20464;-82
2021/10/25 10:51:11;;;;;;;0.40;0.27;;;;;;;12.20;66.25;101521.91;5096870;28;20484;-79
2021/10/25 10:53:43;;;;;;;0.40;0.30;;;;;;;12.24;65.98;101516.72;5077097;28;20491;-79
2021/10/25 10:56:19;;;;;;;0.40;0.30;;;;;;;12.30;65.44;101523.69;5077014;28;20452;-81
2021/10/25 10:58:51;;;;;;;0.40;0.30;;;;;;;12.26;65.83;101517.22;5076962;28;20421;-80
2021/10/25 11:01:17;;;;;;;0.40;0.30;;;;;;;12.39;65.93;101519.25;5077352;28;20480;-79
2021/10/25 11:03:44;;;;;;;0.40;0.30;;;;;;;12.54;65.08;101516.34;5077482;28;20449;-80
2021/10/25 11:06:16;;;;;;;0.40;0.30;;;;;;;12.81;64.90;101523.88;5078191;28;20790;-80
2021/10/25 11:08:45;;;;;;;0.40;0.30;;;;;;;12.99;63.11;101518.75;5093566;28;20457;-81
2021/10/25 11:11:14;;;;;;;1.67;1.57;;;;;;;13.02;62.08;101520.88;5099627;28;20483;-80
2021/10/25 11:13:44;;;;;;;0.40;0.20;;;;;;;13.13;63.01;101514.97;5097723;28;20448;-80
2021/10/25 11:16:18;;;;;;;0.40;0.30;;;;;;;13.27;60.32;101504.19;5097506;28;20436;-80
2021/10/25 11:18:47;;;;;;;0.40;0.20;;;;;;;13.59;61.70;101508.00;5098881;28;20455;-80
2021/10/25 11:21:46;;;;;;;0.40;0.30;;;;;;;13.79;61.31;101502.22;5097781;28;20455;-80
2021/10/25 11:24:15;;;;;;;0.40;0.30;;;;;;;13.94;61.76;101505.75;5101894;28;20453;-80
2021/10/25 11:26:54;;;;;;;;;;;;;;;;;;;;;
2021/10/25 11:29:28;;;;;;;0.40;0.30;;;;;;;13.72;60.55;101506.44;5097947;28;20976;-79
2021/10/25 11:32:00;;;;;;;0.40;0.20;;;;;;;13.62;61.07;101508.22;5097662;28;20459;-80
2021/10/25 11:34:45;;;;;;;;;;;;;;;;;;;;;
2021/10/25 11:37:16;;;;;;;0.40;0.20;;;;;;;13.52;61.02;101510.31;5096448;28;20508;-79
2021/10/25 11:39:56;;;;;;;;;;;;;;;;;;;;;
2021/10/25 11:42:27;;;;;;;0.40;0.30;;;;;;;14.98;58.19;101510.47;5097032;28;20448;-80
2021/10/25 11:44:56;;;;;;;0.40;0.30;;;;;;;15.86;54.72;101508.03;5097950;28;20535;-81
2021/10/25 11:47:25;;;;;;;0.40;0.20;;;;;;;16.17;53.67;101501.75;5098081;28;20425;-80
2021/10/25 11:49:53;;;;;;;0.40;0.30;;;;;;;16.14;54.99;101507.84;5100578;28;20487;-80
2021/10/25 11:52:20;;;;;;;0.40;0.30;;;;;;;15.68;54.57;101489.16;5100214;28;20448;-80
2021/10/25 11:54:48;;;;;;;0.40;0.30;;;;;;;15.32;56.44;101499.03;5100315;28;20995;-79
2021/10/25 11:57:16;;;;;;;0.40;0.30;;;;;;;15.13;57.20;101492.91;5100398;28;20445;-80
2021/10/25 11:59:42;;;;;;;0.40;0.30;;;;;;;15.04;57.01;101497.50;5100726;28;20946;-81
2021/10/25 12:02:10;;;;;;;0.40;0.30;;;;;;;15.15;57.07;101487.97;5100453;28;20804;-81
2021/10/25 12:04:43;;;;;;;0.40;0.30;;;;;;;15.39;56.01;101493.09;5099841;28;20550;-80
2021/10/25 12:07:10;;;;;;;0.40;0.30;;;;;;;15.37;55.28;101485.25;5101862;28;20489;-80
2021/10/25 12:09:37;;;;;;;2.00;1.90;;;;;;;15.11;56.06;101485.06;5099584;28;20983;-80
2021/10/25 12:12:08;;;;;;;0.40;0.30;;;;;;;15.15;56.54;101498.88;5099972;28;20452;-79
2021/10/25 12:14:38;;;;;;;0.40;0.30;;;;;;;15.15;57.55;101507.06;5100363;28;20528;-80
2021/10/25 12:17:08;;;;;;;0.40;0.20;;;;;;;15.18;56.79;101498.25;5099782;28;20460;-81
2021/10/25 12:19:36;;;;;;;0.40;0.30;;;;;;;15.13;56.88;101490.19;5100310;28;20922;-80
2021/10/25 12:22:13;;;;;;;0.40;0.30;;;;;;;15.04;57.10;101489.31;5099507;28;20436;-81
2021/10/25 12:24:42;;;;;;;0.40;0.30;;;;;;;14.88;58.94;101489.69;5100267;28;20460;-80
2021/10/25 12:27:14;;;;;;;0.40;0.30;;;;;;;14.66;58.51;101488.84;5099488;28;20436;-80
2021/10/25 12:29:42;;;;;;;0.40;0.30;;;;;;;14.50;59.47;101493.78;5100009;28;20425;-80
2021/10/25 12:32:11;;;;;;;0.40;0.20;;;;;;;14.24;61.13;101480.66;5099399;28;20437;-80
2021/10/25 12:34:55;;;;;;;0.40;0.30;;;;;;;14.06;61.27;101485.09;5099130;28;20593;-80
2021/10/25 12:37:26;;;;;;;0.40;0.20;;;;;;;13.89;62.22;101480.22;5099600;28;20443;-80
2021/10/25 12:39:54;;;;;;;0.40;0.30;;;;;;;13.82;62.45;101481.75;5099313;28;20477;-79
2021/10/25 12:42:22;;;;;;;0.40;0.30;;;;;;;13.62;62.63;101467.38;5098870;28;20436;-79
2021/10/25 12:44:52;;;;;;;0.40;0.20;;;;;;;13.51;64.22;101465.16;5098871;28;20479;-79
2021/10/25 12:47:22;;;;;;;0.40;0.30;;;;;;;13.50;64.53;101475.25;5099850;28;20482;-80
2021/10/25 12:49:51;;;;;;;0.40;0.30;;;;;;;13.43;63.71;101474.81;5099409;28;20443;-80
2021/10/25 12:52:18;;;;;;;0.40;0.30;;;;;;;13.42;64.71;101465.03;5100382;28;20452;-80
2021/10/25 12:54:47;;;;;;;2.30;2.20;;;;;;;13.56;65.71;101454.19;5099116;28;20460;-80
2021/10/25 12:57:22;;;;;;;0.40;0.23;;;;;;;13.70;65.38;101457.72;5099549;28;20432;-80
2021/10/25 13:00:00;;;;;;;0.40;0.30;;;;;;;13.68;64.15;101465.41;5102279;28;20523;-80
2021/10/25 13:02:29;;;;;;;0.40;0.30;;;;;;;13.59;64.27;101448.13;5099735;28;20441;-79
2021/10/25 13:05:06;;;;;;;0.50;0.40;;;;;;;13.42;64.95;101447.91;5098202;28;20482;-80